sensor_id;sensor_type;location;lat;lon;timestamp;temperature;humidity
67054;SHT31;53960;51.826;5.850;2023-06-26T00:00:12;24.30;67.91
67054;SHT31;53960;51.826;5.850;2023-06-26T00:02:37;24.27;68.59
67054;SHT31;53960;51.826;5.850;2023-06-26T00:05:03;24.26;67.93
67054;SHT31;53960;51.826;5.850;2023-06-26T00:07:29;24.34;67.08
67054;SHT31;53960;51.826;5.850;2023-06-26T00:09:58;24.37;67.81
67054;SHT31;53960;51.826;5.850;2023-06-26T00:12:24;24.43;67.43
67054;SHT31;53960;51.826;5.850;2023-06-26T00:14:49;24.39;68.10
67054;SHT31;53960;51.826;5.850;2023-06-26T00:17:14;24.32;67.71
67054;SHT31;53960;51.826;5.850;2023-06-26T00:19:40;24.37;67.31
67054;SHT31;53960;51.826;5.850;2023-06-26T00:22:05;24.36;67.87
67054;SHT31;53960;51.826;5.850;2023-06-26T00:24:30;24.36;67.37
67054;SHT31;53960;51.826;5.850;2023-06-26T00:26:56;24.34;67.40
67054;SHT31;53960;51.826;5.850;2023-06-26T00:29:21;24.36;67.50
67054;SHT31;53960;51.826;5.850;2023-06-26T00:31:46;24.27;67.86
67054;SHT31;53960;51.826;5.850;2023-06-26T00:34:12;24.24;68.46
67054;SHT31;53960;51.826;5.850;2023-06-26T00:36:37;24.23;68.17
67054;SHT31;53960;51.826;5.850;2023-06-26T00:39:02;24.19;68.43
67054;SHT31;53960;51.826;5.850;2023-06-26T00:41:29;24.22;67.86
67054;SHT31;53960;51.826;5.850;2023-06-26T00:43:54;24.17;67.70
67054;SHT31;53960;51.826;5.850;2023-06-26T00:46:20;24.17;67.71
67054;SHT31;53960;51.826;5.850;2023-06-26T00:48:46;24.13;68.22
67054;SHT31;53960;51.826;5.850;2023-06-26T00:51:12;24.09;68.94
67054;SHT31;53960;51.826;5.850;2023-06-26T00:53:38;24.17;67.51
67054;SHT31;53960;51.826;5.850;2023-06-26T00:56:04;24.22;67.80
67054;SHT31;53960;51.826;5.850;2023-06-26T00:58:30;24.16;67.83
67054;SHT31;53960;51.826;5.850;2023-06-26T01:00:56;24.14;68.45
67054;SHT31;53960;51.826;5.850;2023-06-26T01:03:25;24.12;67.86
67054;SHT31;53960;51.826;5.850;2023-06-26T01:05:52;24.16;68.02
67054;SHT31;53960;51.826;5.850;2023-06-26T01:08:17;24.17;67.66
67054;SHT31;53960;51.826;5.850;2023-06-26T01:10:43;24.22;67.43
67054;SHT31;53960;51.826;5.850;2023-06-26T01:13:09;24.24;67.26
67054;SHT31;53960;51.826;5.850;2023-06-26T01:15:34;24.22;68.01
67054;SHT31;53960;51.826;5.850;2023-06-26T01:18:00;24.12;68.29
67054;SHT31;53960;51.826;5.850;2023-06-26T01:20:36;24.08;68.46
67054;SHT31;53960;51.826;5.850;2023-06-26T01:23:23;24.02;68.64
67054;SHT31;53960;51.826;5.850;2023-06-26T01:28:33;23.90;68.81
67054;SHT31;53960;51.826;5.850;2023-06-26T01:31:00;23.86;69.46
67054;SHT31;53960;51.826;5.850;2023-06-26T01:33:26;23.93;68.67
67054;SHT31;53960;51.826;5.850;2023-06-26T01:35:52;23.92;69.03
67054;SHT31;53960;51.826;5.850;2023-06-26T01:38:19;23.88;69.07
67054;SHT31;53960;51.826;5.850;2023-06-26T01:40:45;23.81;69.44
67054;SHT31;53960;51.826;5.850;2023-06-26T01:46:01;23.90;68.53
67054;SHT31;53960;51.826;5.850;2023-06-26T01:48:31;23.89;67.52
67054;SHT31;53960;51.826;5.850;2023-06-26T01:50:58;23.85;67.86
67054;SHT31;53960;51.826;5.850;2023-06-26T01:53:25;23.98;67.04
67054;SHT31;53960;51.826;5.850;2023-06-26T01:55:59;24.01;66.66
67054;SHT31;53960;51.826;5.850;2023-06-26T01:58:27;24.12;65.77
67054;SHT31;53960;51.826;5.850;2023-06-26T02:00:53;24.08;65.92
67054;SHT31;53960;51.826;5.850;2023-06-26T02:03:18;24.01;65.83
67054;SHT31;53960;51.826;5.850;2023-06-26T02:05:45;24.02;65.81
67054;SHT31;53960;51.826;5.850;2023-06-26T02:08:13;24.01;65.60
67054;SHT31;53960;51.826;5.850;2023-06-26T02:10:39;23.98;65.67
67054;SHT31;53960;51.826;5.850;2023-06-26T02:13:04;23.90;65.96
67054;SHT31;53960;51.826;5.850;2023-06-26T02:15:29;23.86;65.87
67054;SHT31;53960;51.826;5.850;2023-06-26T02:17:55;23.76;66.23
67054;SHT31;53960;51.826;5.850;2023-06-26T02:20:20;23.75;66.39
67054;SHT31;53960;51.826;5.850;2023-06-26T02:22:45;23.72;66.56
67054;SHT31;53960;51.826;5.850;2023-06-26T02:25:11;23.66;66.69
67054;SHT31;53960;51.826;5.850;2023-06-26T02:27:37;23.51;67.09
67054;SHT31;53960;51.826;5.850;2023-06-26T02:30:03;23.44;67.33
67054;SHT31;53960;51.826;5.850;2023-06-26T02:32:29;23.43;67.43
67054;SHT31;53960;51.826;5.850;2023-06-26T02:34:54;23.40;67.51
67054;SHT31;53960;51.826;5.850;2023-06-26T02:37:19;23.33;67.80
67054;SHT31;53960;51.826;5.850;2023-06-26T02:39:45;23.31;67.88
67054;SHT31;53960;51.826;5.850;2023-06-26T02:42:10;23.27;68.04
67054;SHT31;53960;51.826;5.850;2023-06-26T02:44:36;23.28;68.08
67054;SHT31;53960;51.826;5.850;2023-06-26T02:47:01;23.24;68.23
67054;SHT31;53960;51.826;5.850;2023-06-26T02:49:27;23.21;68.30
67054;SHT31;53960;51.826;5.850;2023-06-26T02:51:52;23.11;68.64
67054;SHT31;53960;51.826;5.850;2023-06-26T02:54:17;23.03;68.94
67054;SHT31;53960;51.826;5.850;2023-06-26T02:56:43;23.03;68.79
67054;SHT31;53960;51.826;5.850;2023-06-26T02:59:08;22.96;69.00
67054;SHT31;53960;51.826;5.850;2023-06-26T03:01:33;23.04;68.94
67054;SHT31;53960;51.826;5.850;2023-06-26T03:03:59;22.94;69.18
67054;SHT31;53960;51.826;5.850;2023-06-26T03:06:26;22.87;69.53
67054;SHT31;53960;51.826;5.850;2023-06-26T03:08:51;22.83;69.55
67054;SHT31;53960;51.826;5.850;2023-06-26T03:11:17;22.83;69.61
67054;SHT31;53960;51.826;5.850;2023-06-26T03:13:42;22.89;69.23
67054;SHT31;53960;51.826;5.850;2023-06-26T03:16:07;22.87;69.40
67054;SHT31;53960;51.826;5.850;2023-06-26T03:18:33;22.84;69.58
67054;SHT31;53960;51.826;5.850;2023-06-26T03:20:58;22.84;69.82
67054;SHT31;53960;51.826;5.850;2023-06-26T03:23:24;22.80;69.92
67054;SHT31;53960;51.826;5.850;2023-06-26T03:25:50;22.83;70.05
67054;SHT31;53960;51.826;5.850;2023-06-26T03:28:16;22.67;70.34
67054;SHT31;53960;51.826;5.850;2023-06-26T03:30:41;22.57;70.69
67054;SHT31;53960;51.826;5.850;2023-06-26T03:33:06;22.63;70.77
67054;SHT31;53960;51.826;5.850;2023-06-26T03:35:32;22.67;70.63
67054;SHT31;53960;51.826;5.850;2023-06-26T03:37:58;22.65;70.85
67054;SHT31;53960;51.826;5.850;2023-06-26T03:40:23;22.63;70.95
67054;SHT31;53960;51.826;5.850;2023-06-26T03:42:49;22.66;71.02
67054;SHT31;53960;51.826;5.850;2023-06-26T03:45:14;22.56;71.42
67054;SHT31;53960;51.826;5.850;2023-06-26T03:47:40;22.48;71.78
67054;SHT31;53960;51.826;5.850;2023-06-26T03:50:05;22.45;72.09
67054;SHT31;53960;51.826;5.850;2023-06-26T03:52:31;22.38;72.25
67054;SHT31;53960;51.826;5.850;2023-06-26T03:54:59;22.39;72.31
67054;SHT31;53960;51.826;5.850;2023-06-26T03:57:25;22.45;72.22
67054;SHT31;53960;51.826;5.850;2023-06-26T03:59:51;22.38;72.31
67054;SHT31;53960;51.826;5.850;2023-06-26T04:02:16;22.41;72.46
67054;SHT31;53960;51.826;5.850;2023-06-26T04:04:42;22.29;72.77
67054;SHT31;53960;51.826;5.850;2023-06-26T04:07:07;22.32;72.68
67054;SHT31;53960;51.826;5.850;2023-06-26T04:09:33;22.34;72.81
67054;SHT31;53960;51.826;5.850;2023-06-26T04:11:58;22.35;72.82
67054;SHT31;53960;51.826;5.850;2023-06-26T04:14:23;22.29;73.02
67054;SHT31;53960;51.826;5.850;2023-06-26T04:16:49;22.31;73.19
67054;SHT31;53960;51.826;5.850;2023-06-26T04:19:14;22.25;73.37
67054;SHT31;53960;51.826;5.850;2023-06-26T04:21:40;22.25;73.47
67054;SHT31;53960;51.826;5.850;2023-06-26T04:24:05;22.24;73.56
67054;SHT31;53960;51.826;5.850;2023-06-26T04:26:31;22.22;73.48
67054;SHT31;53960;51.826;5.850;2023-06-26T04:28:56;22.18;73.71
67054;SHT31;53960;51.826;5.850;2023-06-26T04:31:22;22.12;74.15
67054;SHT31;53960;51.826;5.850;2023-06-26T04:33:47;22.17;73.94
67054;SHT31;53960;51.826;5.850;2023-06-26T04:36:17;22.14;74.08
67054;SHT31;53960;51.826;5.850;2023-06-26T04:38:42;22.18;74.02
67054;SHT31;53960;51.826;5.850;2023-06-26T04:41:08;22.24;73.96
67054;SHT31;53960;51.826;5.850;2023-06-26T04:43:33;22.19;74.23
67054;SHT31;53960;51.826;5.850;2023-06-26T04:45:59;22.21;74.22
67054;SHT31;53960;51.826;5.850;2023-06-26T04:48:24;22.28;74.01
67054;SHT31;53960;51.826;5.850;2023-06-26T04:50:53;22.29;74.00
67054;SHT31;53960;51.826;5.850;2023-06-26T04:53:20;22.28;74.01
67054;SHT31;53960;51.826;5.850;2023-06-26T04:55:46;22.28;74.09
67054;SHT31;53960;51.826;5.850;2023-06-26T04:58:11;22.19;74.13
67054;SHT31;53960;51.826;5.850;2023-06-26T05:00:37;22.28;74.05
67054;SHT31;53960;51.826;5.850;2023-06-26T05:03:02;22.24;74.32
67054;SHT31;53960;51.826;5.850;2023-06-26T05:05:28;22.28;74.13
67054;SHT31;53960;51.826;5.850;2023-06-26T05:07:54;22.31;74.06
67054;SHT31;53960;51.826;5.850;2023-06-26T05:10:20;22.26;73.98
67054;SHT31;53960;51.826;5.850;2023-06-26T05:12:45;22.25;73.98
67054;SHT31;53960;51.826;5.850;2023-06-26T05:15:11;22.19;74.18
67054;SHT31;53960;51.826;5.850;2023-06-26T05:17:36;22.09;74.64
67054;SHT31;53960;51.826;5.850;2023-06-26T05:20:01;22.18;74.60
67054;SHT31;53960;51.826;5.850;2023-06-26T05:22:29;22.21;73.84
67054;SHT31;53960;51.826;5.850;2023-06-26T05:24:55;22.25;74.16
67054;SHT31;53960;51.826;5.850;2023-06-26T05:27:21;22.26;74.03
67054;SHT31;53960;51.826;5.850;2023-06-26T05:29:49;22.28;73.56
67054;SHT31;53960;51.826;5.850;2023-06-26T05:32:16;22.36;73.57
67054;SHT31;53960;51.826;5.850;2023-06-26T05:34:48;22.41;73.26
67054;SHT31;53960;51.826;5.850;2023-06-26T05:37:21;22.42;73.16
67054;SHT31;53960;51.826;5.850;2023-06-26T05:39:47;22.42;73.34
67054;SHT31;53960;51.826;5.850;2023-06-26T05:42:13;22.44;73.27
67054;SHT31;53960;51.826;5.850;2023-06-26T05:44:38;22.49;72.81
67054;SHT31;53960;51.826;5.850;2023-06-26T05:47:04;22.38;72.79
67054;SHT31;53960;51.826;5.850;2023-06-26T05:49:30;22.41;72.88
67054;SHT31;53960;51.826;5.850;2023-06-26T05:51:55;22.44;73.05
67054;SHT31;53960;51.826;5.850;2023-06-26T05:54:21;22.41;72.73
67054;SHT31;53960;51.826;5.850;2023-06-26T05:56:47;22.48;72.29
67054;SHT31;53960;51.826;5.850;2023-06-26T05:59:14;22.49;72.44
67054;SHT31;53960;51.826;5.850;2023-06-26T06:01:40;22.55;72.03
67054;SHT31;53960;51.826;5.850;2023-06-26T06:04:06;22.53;71.85
67054;SHT31;53960;51.826;5.850;2023-06-26T06:06:31;22.55;70.67
67054;SHT31;53960;51.826;5.850;2023-06-26T06:08:56;22.51;69.72
67054;SHT31;53960;51.826;5.850;2023-06-26T06:11:22;22.49;69.34
67054;SHT31;53960;51.826;5.850;2023-06-26T06:13:48;22.48;68.99
67054;SHT31;53960;51.826;5.850;2023-06-26T06:16:13;22.48;68.80
67054;SHT31;53960;51.826;5.850;2023-06-26T06:18:39;22.46;68.46
67054;SHT31;53960;51.826;5.850;2023-06-26T06:21:04;22.41;69.06
67054;SHT31;53960;51.826;5.850;2023-06-26T06:23:29;22.25;68.73
67054;SHT31;53960;51.826;5.850;2023-06-26T06:25:55;22.28;68.93
67054;SHT31;53960;51.826;5.850;2023-06-26T06:28:20;22.32;68.92
67054;SHT31;53960;51.826;5.850;2023-06-26T06:30:45;22.42;68.53
67054;SHT31;53960;51.826;5.850;2023-06-26T06:33:13;22.36;68.59
67054;SHT31;53960;51.826;5.850;2023-06-26T06:35:38;22.36;67.56
67054;SHT31;53960;51.826;5.850;2023-06-26T06:38:04;22.39;67.97
67054;SHT31;53960;51.826;5.850;2023-06-26T06:40:29;22.35;67.82
67054;SHT31;53960;51.826;5.850;2023-06-26T06:42:54;22.53;67.68
67054;SHT31;53960;51.826;5.850;2023-06-26T06:45:20;22.52;67.79
67054;SHT31;53960;51.826;5.850;2023-06-26T06:47:45;22.63;67.28
67054;SHT31;53960;51.826;5.850;2023-06-26T06:50:10;22.66;67.64
67054;SHT31;53960;51.826;5.850;2023-06-26T06:52:39;22.69;66.98
67054;SHT31;53960;51.826;5.850;2023-06-26T06:55:07;22.82;66.59
67054;SHT31;53960;51.826;5.850;2023-06-26T06:57:38;22.82;66.43
67054;SHT31;53960;51.826;5.850;2023-06-26T07:00:09;22.82;66.56
67054;SHT31;53960;51.826;5.850;2023-06-26T07:02:36;22.89;66.29
67054;SHT31;53960;51.826;5.850;2023-06-26T07:05:02;22.89;66.35
67054;SHT31;53960;51.826;5.850;2023-06-26T07:07:30;22.99;66.64
67054;SHT31;53960;51.826;5.850;2023-06-26T07:10:05;22.99;66.64
67054;SHT31;53960;51.826;5.850;2023-06-26T07:12:32;22.90;65.63
67054;SHT31;53960;51.826;5.850;2023-06-26T07:14:57;22.92;65.04
67054;SHT31;53960;51.826;5.850;2023-06-26T07:17:23;22.96;65.31
67054;SHT31;53960;51.826;5.850;2023-06-26T07:19:49;23.06;65.69
67054;SHT31;53960;51.826;5.850;2023-06-26T07:22:14;22.99;65.71
67054;SHT31;53960;51.826;5.850;2023-06-26T07:24:40;22.80;66.20
67054;SHT31;53960;51.826;5.850;2023-06-26T07:27:05;22.90;66.07
67054;SHT31;53960;51.826;5.850;2023-06-26T07:29:30;22.84;66.46
67054;SHT31;53960;51.826;5.850;2023-06-26T07:31:56;22.82;66.38
67054;SHT31;53960;51.826;5.850;2023-06-26T07:34:21;22.69;66.96
67054;SHT31;53960;51.826;5.850;2023-06-26T07:36:46;22.89;66.60
67054;SHT31;53960;51.826;5.850;2023-06-26T07:39:12;23.02;66.78
67054;SHT31;53960;51.826;5.850;2023-06-26T07:41:37;22.92;66.92
67054;SHT31;53960;51.826;5.850;2023-06-26T07:44:03;22.86;67.56
67054;SHT31;53960;51.826;5.850;2023-06-26T07:46:28;22.92;67.83
67054;SHT31;53960;51.826;5.850;2023-06-26T07:48:53;23.00;67.26
67054;SHT31;53960;51.826;5.850;2023-06-26T07:51:19;23.06;66.69
67054;SHT31;53960;51.826;5.850;2023-06-26T07:53:45;23.17;66.39
67054;SHT31;53960;51.826;5.850;2023-06-26T07:56:10;23.21;66.60
67054;SHT31;53960;51.826;5.850;2023-06-26T07:58:36;23.11;66.40
67054;SHT31;53960;51.826;5.850;2023-06-26T08:01:01;23.20;66.38
67054;SHT31;53960;51.826;5.850;2023-06-26T08:03:27;23.17;65.79
67054;SHT31;53960;51.826;5.850;2023-06-26T08:05:52;23.25;66.18
67054;SHT31;53960;51.826;5.850;2023-06-26T08:08:17;23.37;65.53
67054;SHT31;53960;51.826;5.850;2023-06-26T08:10:43;23.34;65.16
67054;SHT31;53960;51.826;5.850;2023-06-26T08:13:08;23.20;65.64
67054;SHT31;53960;51.826;5.850;2023-06-26T08:15:34;23.27;65.68
67054;SHT31;53960;51.826;5.850;2023-06-26T08:17:59;23.37;65.89
67054;SHT31;53960;51.826;5.850;2023-06-26T08:20:24;23.61;65.58
67054;SHT31;53960;51.826;5.850;2023-06-26T08:22:50;23.72;65.52
67054;SHT31;53960;51.826;5.850;2023-06-26T08:25:17;23.48;65.92
67054;SHT31;53960;51.826;5.850;2023-06-26T08:27:42;23.35;66.34
67054;SHT31;53960;51.826;5.850;2023-06-26T08:30:08;23.25;66.56
67054;SHT31;53960;51.826;5.850;2023-06-26T08:32:33;23.18;66.98
67054;SHT31;53960;51.826;5.850;2023-06-26T08:34:59;23.04;67.32
67054;SHT31;53960;51.826;5.850;2023-06-26T08:37:24;23.04;66.98
67054;SHT31;53960;51.826;5.850;2023-06-26T08:39:50;23.17;66.85
67054;SHT31;53960;51.826;5.850;2023-06-26T08:42:15;23.24;66.68
67054;SHT31;53960;51.826;5.850;2023-06-26T08:44:41;23.38;66.27
67054;SHT31;53960;51.826;5.850;2023-06-26T08:47:07;23.52;63.97
67054;SHT31;53960;51.826;5.850;2023-06-26T08:52:16;23.55;63.75
67054;SHT31;53960;51.826;5.850;2023-06-26T08:54:45;23.76;63.16
67054;SHT31;53960;51.826;5.850;2023-06-26T08:57:11;23.86;62.24
67054;SHT31;53960;51.826;5.850;2023-06-26T08:59:38;23.85;62.72
67054;SHT31;53960;51.826;5.850;2023-06-26T09:02:04;24.03;62.58
67054;SHT31;53960;51.826;5.850;2023-06-26T09:04:30;23.99;61.96
67054;SHT31;53960;51.826;5.850;2023-06-26T09:06:55;23.96;61.11
67054;SHT31;53960;51.826;5.850;2023-06-26T09:09:21;24.08;61.39
67054;SHT31;53960;51.826;5.850;2023-06-26T09:11:46;24.05;60.16
67054;SHT31;53960;51.826;5.850;2023-06-26T09:14:12;23.95;59.63
67054;SHT31;53960;51.826;5.850;2023-06-26T09:16:41;23.92;59.14
67054;SHT31;53960;51.826;5.850;2023-06-26T09:19:13;23.82;59.01
67054;SHT31;53960;51.826;5.850;2023-06-26T09:21:43;23.73;57.13
67054;SHT31;53960;51.826;5.850;2023-06-26T09:24:09;23.88;57.43
67054;SHT31;53960;51.826;5.850;2023-06-26T09:26:36;23.88;57.17
67054;SHT31;53960;51.826;5.850;2023-06-26T09:29:02;23.98;57.26
67054;SHT31;53960;51.826;5.850;2023-06-26T09:31:28;23.96;56.66
67054;SHT31;53960;51.826;5.850;2023-06-26T09:34:00;24.05;55.33
67054;SHT31;53960;51.826;5.850;2023-06-26T09:36:30;24.03;53.54
67054;SHT31;53960;51.826;5.850;2023-06-26T09:39:02;24.14;53.99
67054;SHT31;53960;51.826;5.850;2023-06-26T09:41:27;24.24;51.45
67054;SHT31;53960;51.826;5.850;2023-06-26T09:43:53;24.22;51.73
67054;SHT31;53960;51.826;5.850;2023-06-26T09:46:30;24.13;52.08
67054;SHT31;53960;51.826;5.850;2023-06-26T09:51:40;24.05;52.06
67054;SHT31;53960;51.826;5.850;2023-06-26T09:54:10;24.05;53.28
67054;SHT31;53960;51.826;5.850;2023-06-26T09:56:35;24.01;53.72
67054;SHT31;53960;51.826;5.850;2023-06-26T09:59:05;23.82;53.40
67054;SHT31;53960;51.826;5.850;2023-06-26T10:01:32;23.62;52.61
67054;SHT31;53960;51.826;5.850;2023-06-26T10:03:59;23.81;53.21
67054;SHT31;53960;51.826;5.850;2023-06-26T10:06:35;24.01;54.22
67054;SHT31;53960;51.826;5.850;2023-06-26T10:09:03;23.79;55.40
67054;SHT31;53960;51.826;5.850;2023-06-26T10:11:36;23.73;56.08
67054;SHT31;53960;51.826;5.850;2023-06-26T10:14:04;23.54;55.29
67054;SHT31;53960;51.826;5.850;2023-06-26T10:16:31;23.68;55.61
67054;SHT31;53960;51.826;5.850;2023-06-26T10:19:02;23.98;54.73
67054;SHT31;53960;51.826;5.850;2023-06-26T10:21:29;24.10;54.57
67054;SHT31;53960;51.826;5.850;2023-06-26T10:23:56;24.10;54.51
67054;SHT31;53960;51.826;5.850;2023-06-26T10:26:24;23.88;56.00
67054;SHT31;53960;51.826;5.850;2023-06-26T10:28:50;23.71;55.68
67054;SHT31;53960;51.826;5.850;2023-06-26T10:31:20;23.64;56.10
67054;SHT31;53960;51.826;5.850;2023-06-26T10:33:47;23.68;56.72
67054;SHT31;53960;51.826;5.850;2023-06-26T10:36:19;24.01;55.80
67054;SHT31;53960;51.826;5.850;2023-06-26T10:38:51;24.01;55.31
67054;SHT31;53960;51.826;5.850;2023-06-26T10:41:24;23.68;55.26
67054;SHT31;53960;51.826;5.850;2023-06-26T10:46:25;23.50;54.63
67054;SHT31;53960;51.826;5.850;2023-06-26T10:48:57;23.43;55.53
67054;SHT31;53960;51.826;5.850;2023-06-26T10:51:26;23.33;56.23
67054;SHT31;53960;51.826;5.850;2023-06-26T10:53:56;23.14;56.98
67054;SHT31;53960;51.826;5.850;2023-06-26T10:56:40;23.38;55.80
67054;SHT31;53960;51.826;5.850;2023-06-26T10:59:33;23.71;56.04
67054;SHT31;53960;51.826;5.850;2023-06-26T11:02:00;24.13;55.12
67054;SHT31;53960;51.826;5.850;2023-06-26T11:04:48;24.29;54.49
67054;SHT31;53960;51.826;5.850;2023-06-26T11:07:18;23.99;54.77
67054;SHT31;53960;51.826;5.850;2023-06-26T11:10:08;23.81;54.05
67054;SHT31;53960;51.826;5.850;2023-06-26T11:12:44;23.76;54.38
67054;SHT31;53960;51.826;5.850;2023-06-26T11:15:14;24.06;54.16
67054;SHT31;53960;51.826;5.850;2023-06-26T11:17:41;24.08;53.45
67054;SHT31;53960;51.826;5.850;2023-06-26T11:20:08;23.93;53.38
67054;SHT31;53960;51.826;5.850;2023-06-26T11:22:38;23.88;52.71
67054;SHT31;53960;51.826;5.850;2023-06-26T11:25:04;23.83;51.81
67054;SHT31;53960;51.826;5.850;2023-06-26T11:30:06;24.34;52.21
67054;SHT31;53960;51.826;5.850;2023-06-26T11:32:32;24.59;51.38
67054;SHT31;53960;51.826;5.850;2023-06-26T11:34:58;24.29;48.85
67054;SHT31;53960;51.826;5.850;2023-06-26T11:37:24;23.92;49.58
67054;SHT31;53960;51.826;5.850;2023-06-26T11:39:50;23.81;50.19
67054;SHT31;53960;51.826;5.850;2023-06-26T11:42:17;23.69;51.06
67054;SHT31;53960;51.826;5.850;2023-06-26T11:44:42;23.72;50.11
67054;SHT31;53960;51.826;5.850;2023-06-26T11:47:19;24.08;49.80
67054;SHT31;53960;51.826;5.850;2023-06-26T11:49:48;24.34;50.56
67054;SHT31;53960;51.826;5.850;2023-06-26T11:52:15;24.09;51.12
67054;SHT31;53960;51.826;5.850;2023-06-26T11:54:41;23.93;50.36
67054;SHT31;53960;51.826;5.850;2023-06-26T11:57:07;23.79;51.07
67054;SHT31;53960;51.826;5.850;2023-06-26T11:59:39;23.69;51.64
67054;SHT31;53960;51.826;5.850;2023-06-26T12:02:06;23.58;52.87
67054;SHT31;53960;51.826;5.850;2023-06-26T12:04:32;23.58;52.72
67054;SHT31;53960;51.826;5.850;2023-06-26T12:06:58;23.75;52.94
67054;SHT31;53960;51.826;5.850;2023-06-26T12:09:25;23.68;53.37
67054;SHT31;53960;51.826;5.850;2023-06-26T12:11:53;24.13;52.88
67054;SHT31;53960;51.826;5.850;2023-06-26T12:14:22;24.34;52.50
67054;SHT31;53960;51.826;5.850;2023-06-26T12:16:48;24.63;51.78
67054;SHT31;53960;51.826;5.850;2023-06-26T12:19:14;24.54;52.07
67054;SHT31;53960;51.826;5.850;2023-06-26T12:24:10;24.22;51.90
67054;SHT31;53960;51.826;5.850;2023-06-26T12:26:37;24.29;51.70
67054;SHT31;53960;51.826;5.850;2023-06-26T12:29:03;24.34;52.34
67054;SHT31;53960;51.826;5.850;2023-06-26T12:31:30;24.59;51.07
67054;SHT31;53960;51.826;5.850;2023-06-26T12:33:56;24.53;50.17
67054;SHT31;53960;51.826;5.850;2023-06-26T12:36:21;24.24;48.97
67054;SHT31;53960;51.826;5.850;2023-06-26T12:38:48;24.20;47.45
67054;SHT31;53960;51.826;5.850;2023-06-26T12:41:14;23.96;45.25
67054;SHT31;53960;51.826;5.850;2023-06-26T12:43:42;24.17;46.42
67054;SHT31;53960;51.826;5.850;2023-06-26T12:46:08;24.34;45.82
67054;SHT31;53960;51.826;5.850;2023-06-26T12:48:41;24.54;46.50
67054;SHT31;53960;51.826;5.850;2023-06-26T12:51:17;24.67;47.34
67054;SHT31;53960;51.826;5.850;2023-06-26T12:53:43;24.72;47.41
67054;SHT31;53960;51.826;5.850;2023-06-26T12:56:10;24.92;46.53
67054;SHT31;53960;51.826;5.850;2023-06-26T12:58:36;24.99;45.65
67054;SHT31;53960;51.826;5.850;2023-06-26T13:01:06;25.09;44.89
67054;SHT31;53960;51.826;5.850;2023-06-26T13:03:40;24.60;46.04
67054;SHT31;53960;51.826;5.850;2023-06-26T13:06:06;24.64;46.72
67054;SHT31;53960;51.826;5.850;2023-06-26T13:08:32;24.78;46.47
67054;SHT31;53960;51.826;5.850;2023-06-26T13:10:58;24.72;47.98
67054;SHT31;53960;51.826;5.850;2023-06-26T13:13:23;24.77;49.21
67054;SHT31;53960;51.826;5.850;2023-06-26T13:15:49;24.63;48.69
67054;SHT31;53960;51.826;5.850;2023-06-26T13:18:14;24.74;49.35
67054;SHT31;53960;51.826;5.850;2023-06-26T13:20:40;24.53;49.82
67054;SHT31;53960;51.826;5.850;2023-06-26T13:23:05;24.29;49.62
67054;SHT31;53960;51.826;5.850;2023-06-26T13:25:30;24.33;49.02
67054;SHT31;53960;51.826;5.850;2023-06-26T13:27:56;24.53;48.25
67054;SHT31;53960;51.826;5.850;2023-06-26T13:30:21;24.24;48.41
67054;SHT31;53960;51.826;5.850;2023-06-26T13:32:47;24.39;48.31
67054;SHT31;53960;51.826;5.850;2023-06-26T13:35:12;24.41;48.02
67054;SHT31;53960;51.826;5.850;2023-06-26T13:37:39;24.14;48.17
67054;SHT31;53960;51.826;5.850;2023-06-26T13:40:07;23.86;49.60
67054;SHT31;53960;51.826;5.850;2023-06-26T13:42:33;23.59;49.94
67054;SHT31;53960;51.826;5.850;2023-06-26T13:44:58;23.69;49.44
67054;SHT31;53960;51.826;5.850;2023-06-26T13:47:23;23.89;48.73
67054;SHT31;53960;51.826;5.850;2023-06-26T13:49:49;24.06;48.42
67054;SHT31;53960;51.826;5.850;2023-06-26T13:52:14;23.82;48.84
67054;SHT31;53960;51.826;5.850;2023-06-26T13:54:40;23.86;48.67
67054;SHT31;53960;51.826;5.850;2023-06-26T13:57:06;23.65;49.45
67054;SHT31;53960;51.826;5.850;2023-06-26T13:59:33;23.62;48.17
67054;SHT31;53960;51.826;5.850;2023-06-26T14:01:59;23.86;46.95
67054;SHT31;53960;51.826;5.850;2023-06-26T14:04:25;24.02;46.95
67054;SHT31;53960;51.826;5.850;2023-06-26T14:06:51;24.03;46.05
67054;SHT31;53960;51.826;5.850;2023-06-26T14:09:16;24.27;45.84
67054;SHT31;53960;51.826;5.850;2023-06-26T14:11:43;24.22;45.70
67054;SHT31;53960;51.826;5.850;2023-06-26T14:14:08;24.36;45.47
67054;SHT31;53960;51.826;5.850;2023-06-26T14:16:34;24.27;46.12
67054;SHT31;53960;51.826;5.850;2023-06-26T14:18:59;24.30;46.31
67054;SHT31;53960;51.826;5.850;2023-06-26T14:21:25;24.41;45.93
67054;SHT31;53960;51.826;5.850;2023-06-26T14:23:51;24.61;45.31
67054;SHT31;53960;51.826;5.850;2023-06-26T14:26:16;24.82;45.62
67054;SHT31;53960;51.826;5.850;2023-06-26T14:28:41;24.78;44.30
67054;SHT31;53960;51.826;5.850;2023-06-26T14:31:07;24.87;44.89
67054;SHT31;53960;51.826;5.850;2023-06-26T14:33:32;24.98;45.42
67054;SHT31;53960;51.826;5.850;2023-06-26T14:35:58;24.87;46.26
67054;SHT31;53960;51.826;5.850;2023-06-26T14:38:23;24.51;47.41
67054;SHT31;53960;51.826;5.850;2023-06-26T14:40:48;24.67;48.42
67054;SHT31;53960;51.826;5.850;2023-06-26T14:43:14;24.37;46.99
67054;SHT31;53960;51.826;5.850;2023-06-26T14:45:39;24.53;46.92
67054;SHT31;53960;51.826;5.850;2023-06-26T14:48:05;24.50;47.45
67054;SHT31;53960;51.826;5.850;2023-06-26T14:50:30;24.81;47.18
67054;SHT31;53960;51.826;5.850;2023-06-26T14:52:55;24.77;46.12
67054;SHT31;53960;51.826;5.850;2023-06-26T14:55:21;24.82;46.85
67054;SHT31;53960;51.826;5.850;2023-06-26T14:57:46;24.65;46.54
67054;SHT31;53960;51.826;5.850;2023-06-26T15:00:12;24.39;47.47
67054;SHT31;53960;51.826;5.850;2023-06-26T15:02:38;24.29;47.36
67054;SHT31;53960;51.826;5.850;2023-06-26T15:05:03;24.23;46.91
67054;SHT31;53960;51.826;5.850;2023-06-26T15:07:28;24.32;47.02
67054;SHT31;53960;51.826;5.850;2023-06-26T15:09:54;24.37;46.79
67054;SHT31;53960;51.826;5.850;2023-06-26T15:12:19;24.54;46.72
67054;SHT31;53960;51.826;5.850;2023-06-26T15:14:45;24.59;45.64
67054;SHT31;53960;51.826;5.850;2023-06-26T15:17:11;24.72;45.83
67054;SHT31;53960;51.826;5.850;2023-06-26T15:19:38;24.82;45.58
67054;SHT31;53960;51.826;5.850;2023-06-26T15:22:04;24.78;45.25
67054;SHT31;53960;51.826;5.850;2023-06-26T15:24:29;24.81;45.27
67054;SHT31;53960;51.826;5.850;2023-06-26T15:26:55;25.14;45.55
67054;SHT31;53960;51.826;5.850;2023-06-26T15:29:21;25.26;44.64
67054;SHT31;53960;51.826;5.850;2023-06-26T15:31:47;25.15;45.10
67054;SHT31;53960;51.826;5.850;2023-06-26T15:34:12;25.19;45.18
67054;SHT31;53960;51.826;5.850;2023-06-26T15:36:38;24.90;44.58
67054;SHT31;53960;51.826;5.850;2023-06-26T15:39:03;25.02;44.93
67054;SHT31;53960;51.826;5.850;2023-06-26T15:41:29;25.16;44.46
67054;SHT31;53960;51.826;5.850;2023-06-26T15:43:54;24.92;43.90